createdAt,value
2023-05-31T00:00:03.347Z,81.60
2023-05-31T00:02:30.238Z,82.10
2023-05-31T00:04:57.216Z,84.30
2023-05-31T00:07:23.932Z,84.90
2023-05-31T00:09:50.650Z,85.80
2023-05-31T00:12:17.409Z,86.10
2023-05-31T00:14:44.158Z,86.30
2023-05-31T00:19:40.871Z,90.00
2023-05-31T00:22:07.558Z,90.00
2023-05-31T00:24:34.370Z,90.50
2023-05-31T00:27:01.693Z,90.80
2023-05-31T00:29:28.466Z,90.70
2023-05-31T00:31:55.210Z,91.20
2023-05-31T00:34:22.086Z,91.30
2023-05-31T00:36:48.778Z,91.30
2023-05-31T00:39:15.506Z,91.40
2023-05-31T00:41:42.179Z,91.00
2023-05-31T00:44:08.839Z,90.60
2023-05-31T00:46:37.278Z,90.50
2023-05-31T00:49:04.152Z,90.00
2023-05-31T00:51:31.785Z,89.30
2023-05-31T00:53:59.795Z,90.10
2023-05-31T00:56:26.747Z,89.20
2023-05-31T00:58:54.205Z,90.40
2023-05-31T01:01:21.249Z,90.50
2023-05-31T01:03:48.343Z,90.50
2023-05-31T01:06:16.132Z,90.70
2023-05-31T01:08:42.852Z,90.30
2023-05-31T01:11:33.086Z,90.10
2023-05-31T01:14:05.787Z,88.90
2023-05-31T01:16:37.129Z,89.00
2023-05-31T01:19:08.444Z,89.40
2023-05-31T01:21:47.747Z,90.70
2023-05-31T01:24:17.560Z,91.00
2023-05-31T01:26:47.266Z,91.10
2023-05-31T01:29:20.967Z,90.60
2023-05-31T01:31:48.332Z,90.60
2023-05-31T01:34:15.388Z,90.90
2023-05-31T01:36:42.144Z,90.30
2023-05-31T01:39:10.390Z,90.50
2023-05-31T01:41:41.689Z,90.70
2023-05-31T01:44:09.065Z,91.30
2023-05-31T01:46:35.842Z,91.50
2023-05-31T01:49:03.009Z,91.50
2023-05-31T01:51:31.911Z,91.50
2023-05-31T01:53:58.587Z,91.80
2023-05-31T01:56:26.316Z,91.80
2023-05-31T01:58:53.042Z,92.00
2023-05-31T02:01:20.535Z,92.00
2023-05-31T02:03:50.044Z,91.50
2023-05-31T02:06:16.807Z,91.40
2023-05-31T02:08:43.495Z,91.30
2023-05-31T02:11:10.252Z,90.50
2023-05-31T02:13:36.902Z,90.10
2023-05-31T02:16:04.754Z,90.10
2023-05-31T02:18:31.470Z,90.80
2023-05-31T02:20:58.245Z,89.10
2023-05-31T02:23:25.101Z,89.00
2023-05-31T02:25:52.092Z,90.10
2023-05-31T02:28:18.893Z,88.90
2023-05-31T02:30:55.579Z,88.00
2023-05-31T02:33:22.877Z,88.50
2023-05-31T02:35:49.874Z,90.10
2023-05-31T02:38:16.577Z,88.30
2023-05-31T02:40:43.237Z,89.70
2023-05-31T02:43:09.897Z,89.70
2023-05-31T02:45:36.622Z,89.60
2023-05-31T02:48:06.347Z,90.00
2023-05-31T02:50:33.436Z,90.00
2023-05-31T02:53:01.683Z,90.00
2023-05-31T02:55:28.536Z,89.90
2023-05-31T02:57:55.302Z,89.60
2023-05-31T03:00:22.093Z,90.10
2023-05-31T03:02:48.930Z,90.00
2023-05-31T03:05:15.793Z,90.20
2023-05-31T03:07:42.484Z,89.80
2023-05-31T03:10:09.807Z,88.90
2023-05-31T03:12:36.614Z,89.00
2023-05-31T03:15:04.818Z,88.80
2023-05-31T03:17:31.922Z,88.40
2023-05-31T03:19:58.867Z,87.70
2023-05-31T03:22:26.344Z,87.70
2023-05-31T03:24:53.159Z,87.20
2023-05-31T03:27:19.901Z,87.20
2023-05-31T03:29:46.658Z,86.90
2023-05-31T03:32:13.504Z,87.50
2023-05-31T03:34:40.274Z,86.00
2023-05-31T03:37:07.109Z,86.10
2023-05-31T03:39:33.918Z,85.10
2023-05-31T03:42:01.610Z,85.10
2023-05-31T03:44:28.343Z,85.10
2023-05-31T03:46:55.069Z,85.30
2023-05-31T03:49:21.772Z,85.50
2023-05-31T03:51:48.586Z,84.60
2023-05-31T03:54:15.457Z,84.60
2023-05-31T03:56:42.166Z,82.10
2023-05-31T03:59:09.559Z,79.30
2023-05-31T04:01:36.799Z,77.40
2023-05-31T04:04:03.921Z,76.30
2023-05-31T04:06:30.830Z,75.00
2023-05-31T04:08:57.577Z,73.70
2023-05-31T04:11:24.804Z,73.30
2023-05-31T04:13:51.662Z,72.10
2023-05-31T04:16:18.495Z,70.90
2023-05-31T04:18:45.261Z,70.90
2023-05-31T04:21:11.984Z,69.00
2023-05-31T04:23:38.771Z,69.00
2023-05-31T04:26:05.829Z,67.40
2023-05-31T04:28:32.778Z,66.80
2023-05-31T04:31:00.096Z,67.00
2023-05-31T04:33:30.312Z,66.60
2023-05-31T04:35:58.610Z,66.10
2023-05-31T04:38:28.449Z,64.30
2023-05-31T04:40:58.694Z,64.00
2023-05-31T04:43:28.454Z,65.20
2023-05-31T04:45:55.231Z,65.40
2023-05-31T04:48:23.105Z,65.20
2023-05-31T04:50:49.982Z,64.00
2023-05-31T04:53:16.660Z,64.00
2023-05-31T04:55:43.425Z,63.40
2023-05-31T04:58:10.191Z,62.90
2023-05-31T05:00:38.189Z,62.90
2023-05-31T05:03:05.174Z,62.30
2023-05-31T05:05:32.781Z,61.30
2023-05-31T05:07:59.489Z,61.10
2023-05-31T05:10:26.160Z,60.20
2023-05-31T05:12:52.852Z,61.60
2023-05-31T05:15:19.599Z,61.60
2023-05-31T05:17:47.259Z,60.70
2023-05-31T05:20:14.227Z,60.00
2023-05-31T05:22:42.794Z,59.30
2023-05-31T05:25:09.642Z,58.20
2023-05-31T05:27:36.627Z,58.20
2023-05-31T05:30:04.336Z,57.90
2023-05-31T05:32:31.140Z,56.50
2023-05-31T05:34:57.848Z,55.10
2023-05-31T05:37:24.523Z,55.00
2023-05-31T05:39:51.201Z,54.50
2023-05-31T05:42:17.853Z,53.80
2023-05-31T05:44:44.523Z,53.90
2023-05-31T05:47:11.409Z,53.50
2023-05-31T05:49:38.165Z,52.20
2023-05-31T05:52:05.042Z,51.70
2023-05-31T05:54:31.787Z,50.90
2023-05-31T05:56:58.425Z,50.60
2023-05-31T05:59:25.066Z,50.70
2023-05-31T06:01:51.904Z,50.10
2023-05-31T06:04:18.617Z,49.70
2023-05-31T06:06:46.652Z,48.20
2023-05-31T06:09:13.662Z,48.30
2023-05-31T06:11:40.490Z,49.10
2023-05-31T06:14:07.192Z,47.70
2023-05-31T06:16:34.511Z,47.80
2023-05-31T06:19:01.295Z,48.40
2023-05-31T06:21:27.955Z,48.20
2023-05-31T06:23:54.746Z,48.10
2023-05-31T06:26:21.418Z,48.70
2023-05-31T06:28:48.066Z,50.70
2023-05-31T06:31:14.747Z,49.90
2023-05-31T06:33:41.518Z,49.00
2023-05-31T06:36:08.300Z,49.80
2023-05-31T06:38:35.088Z,48.90
2023-05-31T06:41:01.988Z,48.70
2023-05-31T06:43:28.947Z,48.30
2023-05-31T06:45:55.727Z,47.80
2023-05-31T06:48:22.508Z,48.00
2023-05-31T06:50:49.211Z,47.60
2023-05-31T06:53:15.938Z,48.00
2023-05-31T06:55:42.698Z,50.10
2023-05-31T06:58:09.406Z,49.70
2023-05-31T07:00:36.054Z,50.20
2023-05-31T07:03:02.795Z,50.20
2023-05-31T07:05:30.623Z,50.50
2023-05-31T07:07:57.336Z,51.10
2023-05-31T07:10:24.085Z,51.40
2023-05-31T07:12:51.991Z,52.50
2023-05-31T07:15:18.811Z,52.10
2023-05-31T07:17:47.182Z,51.90
2023-05-31T07:20:14.336Z,51.10
2023-05-31T07:22:41.044Z,51.20
2023-05-31T07:25:08.021Z,52.20
2023-05-31T07:27:34.684Z,53.90
2023-05-31T07:30:01.430Z,53.20
2023-05-31T07:32:28.349Z,52.80
2023-05-31T07:35:04.118Z,53.60
2023-05-31T07:37:31.709Z,54.20
2023-05-31T07:39:58.892Z,52.40
2023-05-31T07:42:25.556Z,53.00
2023-05-31T07:44:52.330Z,52.50
2023-05-31T07:47:20.811Z,52.60
2023-05-31T07:49:47.751Z,52.60
2023-05-31T07:52:14.588Z,52.70
2023-05-31T07:54:41.293Z,53.00
2023-05-31T07:57:07.994Z,52.20
2023-05-31T07:59:34.676Z,53.60
2023-05-31T08:02:01.418Z,53.90
2023-05-31T08:04:28.210Z,53.10
2023-05-31T08:06:54.913Z,54.20
2023-05-31T08:09:22.035Z,53.70
2023-05-31T08:11:48.791Z,53.10
2023-05-31T08:14:15.599Z,54.30
2023-05-31T08:16:42.284Z,55.50
2023-05-31T08:19:09.109Z,55.80
2023-05-31T08:21:38.035Z,56.00
2023-05-31T08:24:07.146Z,54.80
2023-05-31T08:26:34.271Z,55.70
2023-05-31T08:29:01.122Z,53.80
2023-05-31T08:31:28.059Z,54.60
2023-05-31T08:33:56.270Z,55.70
2023-05-31T08:36:23.174Z,54.00
2023-05-31T08:38:49.930Z,55.10
2023-05-31T08:41:16.871Z,54.60
2023-05-31T08:43:43.711Z,56.00
2023-05-31T08:46:11.080Z,56.00
2023-05-31T08:48:46.189Z,56.80
2023-05-31T08:51:14.511Z,56.50
2023-05-31T08:53:41.744Z,56.20
2023-05-31T08:56:09.432Z,56.80
2023-05-31T08:58:37.196Z,57.60
2023-05-31T09:01:04.165Z,56.60
2023-05-31T09:03:32.291Z,58.00
2023-05-31T09:05:59.152Z,57.00
2023-05-31T09:08:26.079Z,55.90
2023-05-31T09:10:52.791Z,55.40
2023-05-31T09:13:19.752Z,56.90
2023-05-31T09:15:47.522Z,57.00
2023-05-31T09:18:18.167Z,56.90
2023-05-31T09:20:57.319Z,58.20
2023-05-31T09:23:24.183Z,55.60
2023-05-31T09:25:51.759Z,56.20
2023-05-31T09:28:22.144Z,56.20
2023-05-31T09:31:01.979Z,55.60
2023-05-31T09:33:42.268Z,55.10
2023-05-31T09:36:09.485Z,55.50
2023-05-31T09:38:36.956Z,56.20
2023-05-31T09:41:16.989Z,55.10
2023-05-31T09:43:44.449Z,55.00
2023-05-31T09:46:17.922Z,55.20
2023-05-31T09:48:45.231Z,55.00
2023-05-31T09:51:12.583Z,55.00
2023-05-31T09:53:40.202Z,54.80
2023-05-31T09:56:18.387Z,54.70
2023-05-31T09:58:45.420Z,55.90
2023-05-31T10:01:12.143Z,54.70
2023-05-31T10:03:40.090Z,53.80
2023-05-31T10:06:07.827Z,53.90
2023-05-31T10:08:34.895Z,53.80
2023-05-31T10:11:02.281Z,54.20
2023-05-31T10:13:29.890Z,54.90
2023-05-31T10:15:58.080Z,54.60
2023-05-31T10:18:29.209Z,54.00
2023-05-31T10:20:59.184Z,51.90
2023-05-31T10:23:26.679Z,53.60
2023-05-31T10:25:57.660Z,53.80
2023-05-31T10:28:28.169Z,52.80
2023-05-31T10:30:55.586Z,53.00
2023-05-31T10:33:23.695Z,53.10
2023-05-31T10:35:51.859Z,52.80
2023-05-31T10:38:21.601Z,52.80
2023-05-31T10:40:50.448Z,52.90
2023-05-31T10:43:17.130Z,52.60
2023-05-31T10:45:46.710Z,53.10
2023-05-31T10:48:16.399Z,52.90
2023-05-31T10:50:56.255Z,52.10
2023-05-31T10:53:23.493Z,52.80
2023-05-31T10:55:50.875Z,54.30
2023-05-31T10:58:29.873Z,53.30
2023-05-31T11:00:57.469Z,52.50
2023-05-31T11:03:27.184Z,52.20
2023-05-31T11:05:57.633Z,52.70
2023-05-31T11:08:25.040Z,53.00
2023-05-31T11:10:51.830Z,54.00
2023-05-31T11:13:18.933Z,53.60
2023-05-31T11:15:46.734Z,52.50
2023-05-31T11:18:22.069Z,51.80
2023-05-31T11:20:48.813Z,53.50
2023-05-31T11:23:18.514Z,53.40
2023-05-31T11:25:45.432Z,53.60
2023-05-31T11:28:18.199Z,52.60
2023-05-31T11:30:47.345Z,52.90
2023-05-31T11:33:17.119Z,52.60
2023-05-31T11:35:44.060Z,51.40
2023-05-31T11:38:13.879Z,52.60
2023-05-31T11:40:40.808Z,52.70
2023-05-31T11:43:09.664Z,52.60
2023-05-31T11:45:40.587Z,53.50
2023-05-31T11:48:15.242Z,52.90
2023-05-31T11:50:45.531Z,55.10
2023-05-31T11:53:13.236Z,51.60
2023-05-31T11:55:40.048Z,52.70
2023-05-31T11:58:07.793Z,51.40
2023-05-31T12:00:36.017Z,52.30
2023-05-31T12:03:07.138Z,51.00
2023-05-31T12:05:33.945Z,52.70
2023-05-31T12:08:01.103Z,52.90
2023-05-31T12:10:28.748Z,51.30
2023-05-31T12:12:57.602Z,50.10
2023-05-31T12:15:27.360Z,51.40
2023-05-31T12:17:58.207Z,52.50
2023-05-31T12:20:28.009Z,51.50
2023-05-31T12:23:09.099Z,51.80
2023-05-31T12:25:36.019Z,51.40
2023-05-31T12:28:03.297Z,50.90
2023-05-31T12:30:36.483Z,51.10
2023-05-31T12:33:13.513Z,51.80
2023-05-31T12:35:40.725Z,51.40
2023-05-31T12:38:07.401Z,51.30
2023-05-31T12:40:37.746Z,50.80
2023-05-31T12:43:04.505Z,50.50
2023-05-31T12:45:31.214Z,49.40
2023-05-31T12:47:58.586Z,49.80
2023-05-31T12:50:28.599Z,51.50
2023-05-31T12:52:56.050Z,51.30
2023-05-31T12:55:22.747Z,49.80
2023-05-31T13:00:21.156Z,50.10
2023-05-31T13:02:48.061Z,49.60
2023-05-31T13:05:14.893Z,49.50
2023-05-31T13:07:41.635Z,49.20
2023-05-31T13:10:12.648Z,49.60
2023-05-31T13:12:39.759Z,50.10
2023-05-31T13:15:08.022Z,49.90
2023-05-31T13:17:34.941Z,47.70
2023-05-31T13:20:12.002Z,48.80
2023-05-31T13:22:39.944Z,48.50
2023-05-31T13:25:07.274Z,50.10
2023-05-31T13:27:34.455Z,48.50
2023-05-31T13:30:01.212Z,49.70
2023-05-31T13:32:29.052Z,48.20
2023-05-31T13:34:58.377Z,49.30
2023-05-31T13:37:27.184Z,49.20
2023-05-31T13:39:56.180Z,49.30
2023-05-31T13:42:23.046Z,49.40
2023-05-31T13:44:49.715Z,48.80
2023-05-31T13:47:16.442Z,49.10
2023-05-31T13:49:43.199Z,48.70
2023-05-31T13:52:14.424Z,49.40
2023-05-31T13:54:41.623Z,47.50
2023-05-31T13:57:08.408Z,49.10
2023-05-31T13:59:35.254Z,49.20
2023-05-31T14:02:02.153Z,47.80
2023-05-31T14:04:28.939Z,47.50
2023-05-31T14:06:56.008Z,47.20
2023-05-31T14:09:22.736Z,48.20
2023-05-31T14:11:49.460Z,48.50
2023-05-31T14:14:16.239Z,48.70
2023-05-31T14:16:43.156Z,49.40
2023-05-31T14:19:10.037Z,49.40
2023-05-31T14:21:42.594Z,48.70
2023-05-31T14:24:10.161Z,48.60
2023-05-31T14:26:36.850Z,47.30
2023-05-31T14:29:03.704Z,48.90
2023-05-31T14:31:30.528Z,48.80
2023-05-31T14:33:57.387Z,48.70
2023-05-31T14:36:24.630Z,49.10
2023-05-31T14:38:51.852Z,48.90
2023-05-31T14:41:18.888Z,48.70
2023-05-31T14:43:47.314Z,49.10
2023-05-31T14:46:14.267Z,49.20
2023-05-31T14:48:41.304Z,48.50
2023-05-31T14:51:08.026Z,49.00
2023-05-31T14:53:34.753Z,49.50
2023-05-31T14:58:31.095Z,49.30
2023-05-31T15:00:57.966Z,49.50
2023-05-31T15:03:24.779Z,49.70
2023-05-31T15:05:51.501Z,49.40
2023-05-31T15:08:18.167Z,50.60
2023-05-31T15:10:44.902Z,49.40
2023-05-31T15:13:11.793Z,49.40
2023-05-31T15:15:38.617Z,51.10
2023-05-31T15:18:06.810Z,49.50
2023-05-31T15:20:33.612Z,50.20
2023-05-31T15:23:00.342Z,49.90
2023-05-31T15:25:27.068Z,50.80
2023-05-31T15:27:53.840Z,49.70
2023-05-31T15:30:20.583Z,50.10
2023-05-31T15:32:47.334Z,50.80
2023-05-31T15:35:14.015Z,50.10
2023-05-31T15:37:40.735Z,50.20
2023-05-31T15:40:07.808Z,49.70
2023-05-31T15:42:34.528Z,50.90
2023-05-31T15:45:01.218Z,51.20
2023-05-31T15:47:27.925Z,50.90
2023-05-31T15:49:55.719Z,50.20
2023-05-31T15:52:22.452Z,50.90
2023-05-31T15:54:49.231Z,51.00
2023-05-31T15:57:15.990Z,50.80
2023-05-31T15:59:42.677Z,50.40
2023-05-31T16:02:09.456Z,50.10
2023-05-31T16:04:36.117Z,50.30
2023-05-31T16:07:02.865Z,50.30
2023-05-31T16:09:29.695Z,50.30
2023-05-31T16:11:56.432Z,50.30
2023-05-31T16:14:23.144Z,49.70
2023-05-31T16:16:49.871Z,51.20
2023-05-31T16:19:16.824Z,50.60
2023-05-31T16:21:43.724Z,51.00
2023-05-31T16:24:11.835Z,50.60
2023-05-31T16:26:38.553Z,50.80
2023-05-31T16:29:05.459Z,51.20
2023-05-31T16:31:32.406Z,51.30
2023-05-31T16:33:59.154Z,50.20
2023-05-31T16:36:25.957Z,50.50
2023-05-31T16:38:52.646Z,50.20
2023-05-31T16:41:19.359Z,50.30
2023-05-31T16:43:46.207Z,50.80
2023-05-31T16:46:13.151Z,50.90
2023-05-31T16:48:40.357Z,51.30
2023-05-31T16:51:07.141Z,51.50
2023-05-31T16:53:33.812Z,51.70
2023-05-31T16:56:01.230Z,51.20
2023-05-31T16:58:28.139Z,51.20
2023-05-31T17:00:54.826Z,51.00
2023-05-31T17:03:21.532Z,51.40
2023-05-31T17:05:48.912Z,51.90
2023-05-31T17:08:15.724Z,52.20
2023-05-31T17:10:43.264Z,51.60
2023-05-31T17:13:10.662Z,51.30
2023-05-31T17:15:37.544Z,51.80
2023-05-31T17:18:04.377Z,51.10
2023-05-31T17:20:31.384Z,51.60
2023-05-31T17:22:58.175Z,51.80
2023-05-31T17:25:24.914Z,51.90
2023-05-31T17:27:53.072Z,52.50
2023-05-31T17:30:26.527Z,52.30
2023-05-31T17:32:53.979Z,52.60
2023-05-31T17:35:21.008Z,53.00
2023-05-31T17:37:48.169Z,52.50
2023-05-31T17:40:15.518Z,52.30
2023-05-31T17:42:42.848Z,52.70
2023-05-31T17:45:09.922Z,52.90
2023-05-31T17:47:36.742Z,53.20
2023-05-31T17:50:03.806Z,53.90
2023-05-31T17:52:35.624Z,53.50
2023-05-31T17:55:04.049Z,53.60
2023-05-31T17:57:30.996Z,53.90
2023-05-31T18:00:00.936Z,53.80
2023-05-31T18:02:27.794Z,54.30
2023-05-31T18:04:54.546Z,54.40
2023-05-31T18:07:21.383Z,54.70
2023-05-31T18:09:48.055Z,54.80
2023-05-31T18:12:14.802Z,55.10
2023-05-31T18:14:41.606Z,55.40
2023-05-31T18:17:08.353Z,55.60
2023-05-31T18:19:35.712Z,55.90
2023-05-31T18:22:02.557Z,55.90
2023-05-31T18:24:29.559Z,56.20
2023-05-31T18:27:12.813Z,56.60
2023-05-31T18:29:39.617Z,56.40
2023-05-31T18:32:06.543Z,56.70
2023-05-31T18:34:34.492Z,56.90
2023-05-31T18:37:01.426Z,57.20
2023-05-31T18:39:28.718Z,57.20
2023-05-31T18:41:56.286Z,57.60
2023-05-31T18:44:23.002Z,57.80
2023-05-31T18:46:49.748Z,57.90
2023-05-31T18:49:16.471Z,58.20
2023-05-31T18:51:43.182Z,58.50
2023-05-31T18:54:09.816Z,58.80
2023-05-31T18:56:36.513Z,59.10
2023-05-31T18:59:03.212Z,59.50
2023-05-31T19:01:29.953Z,59.60
2023-05-31T19:03:57.724Z,60.00
2023-05-31T19:06:24.617Z,60.40
2023-05-31T19:08:51.319Z,60.60
2023-05-31T19:11:18.020Z,61.70
2023-05-31T19:13:44.713Z,61.80
2023-05-31T19:16:11.455Z,62.70
2023-05-31T19:18:38.296Z,64.20
2023-05-31T19:21:05.165Z,64.30
2023-05-31T19:23:31.812Z,65.70
2023-05-31T19:25:58.705Z,66.20
2023-05-31T19:28:25.541Z,67.20
2023-05-31T19:30:52.639Z,67.90
2023-05-31T19:33:19.558Z,68.60
2023-05-31T19:35:46.955Z,69.10
2023-05-31T19:38:13.766Z,69.80
2023-05-31T19:40:40.660Z,70.10
2023-05-31T19:43:07.790Z,71.40
2023-05-31T19:45:34.736Z,73.80
2023-05-31T19:48:07.801Z,74.70
2023-05-31T19:50:35.347Z,76.20
2023-05-31T19:53:02.015Z,76.80
2023-05-31T19:55:28.716Z,77.70
2023-05-31T19:57:55.566Z,78.50
2023-05-31T20:00:22.455Z,79.20
2023-05-31T20:02:49.346Z,80.00
2023-05-31T20:05:16.730Z,81.20
2023-05-31T20:07:43.435Z,81.80
2023-05-31T20:10:10.376Z,82.70
2023-05-31T20:12:37.119Z,83.70
2023-05-31T20:15:04.005Z,85.40
2023-05-31T20:17:30.792Z,86.00
2023-05-31T20:19:57.609Z,86.80
2023-05-31T20:22:24.352Z,87.10
2023-05-31T20:24:51.055Z,87.60
2023-05-31T20:27:17.778Z,89.50
2023-05-31T20:29:44.464Z,90.20
2023-05-31T20:32:11.475Z,90.40
2023-05-31T20:34:38.465Z,91.00
2023-05-31T20:37:05.817Z,91.60
2023-05-31T20:39:32.630Z,91.70
2023-05-31T20:41:59.340Z,92.20
2023-05-31T20:44:26.338Z,92.70
2023-05-31T20:46:53.064Z,93.20
2023-05-31T20:49:19.936Z,93.30
2023-05-31T20:51:46.729Z,93.50
2023-05-31T20:54:13.804Z,93.80
2023-05-31T20:56:41.151Z,94.20
2023-05-31T20:59:08.029Z,94.60
2023-05-31T21:01:34.737Z,94.90
2023-05-31T21:04:01.777Z,95.20
2023-05-31T21:06:28.629Z,95.50
2023-05-31T21:08:55.444Z,95.80
2023-05-31T21:11:22.157Z,96.10
2023-05-31T21:13:48.906Z,96.40
2023-05-31T21:16:15.738Z,96.60
2023-05-31T21:18:42.548Z,97.00
2023-05-31T21:21:09.178Z,97.30
2023-05-31T21:23:35.929Z,97.80
2023-05-31T21:26:02.898Z,98.00
2023-05-31T21:28:29.889Z,98.10
2023-05-31T21:30:56.563Z,98.50
2023-05-31T21:33:23.332Z,98.80
2023-05-31T21:35:50.096Z,98.90
2023-05-31T21:38:16.806Z,99.00
2023-05-31T21:40:43.566Z,99.20
2023-05-31T21:43:10.322Z,99.50
2023-05-31T21:45:36.998Z,99.80
2023-05-31T21:48:03.779Z,99.90
2023-05-31T21:50:32.363Z,99.90
2023-05-31T21:52:59.500Z,99.90
2023-05-31T21:55:26.252Z,99.90
2023-05-31T21:57:52.935Z,99.90
2023-05-31T22:00:19.908Z,99.90
2023-05-31T22:02:46.635Z,99.90
2023-05-31T22:05:13.331Z,99.90
2023-05-31T22:07:40.070Z,99.90
2023-05-31T22:10:08.301Z,99.90
2023-05-31T22:12:37.801Z,99.90
2023-05-31T22:15:05.072Z,99.90
2023-05-31T22:17:31.856Z,99.90
2023-05-31T22:20:02.898Z,99.90
2023-05-31T22:22:29.768Z,99.90
2023-05-31T22:25:09.503Z,99.90
2023-05-31T22:27:40.574Z,99.90
2023-05-31T22:30:07.706Z,99.90
2023-05-31T22:32:34.404Z,99.90
2023-05-31T22:35:01.139Z,99.90
2023-05-31T22:37:27.872Z,99.90
2023-05-31T22:39:54.616Z,99.90
2023-05-31T22:42:21.340Z,99.90
2023-05-31T22:44:47.986Z,99.90
2023-05-31T22:47:14.737Z,99.90
2023-05-31T22:49:41.441Z,99.90
2023-05-31T22:52:10.208Z,99.90
2023-05-31T22:54:37.369Z,99.90
2023-05-31T22:57:04.274Z,99.90
2023-05-31T22:59:31.265Z,99.90
2023-05-31T23:01:58.083Z,99.90
2023-05-31T23:04:26.815Z,99.90
2023-05-31T23:06:54.421Z,99.90
2023-05-31T23:09:21.173Z,99.90
2023-05-31T23:11:50.441Z,99.90
2023-05-31T23:14:18.524Z,99.90
2023-05-31T23:16:46.606Z,99.90
2023-05-31T23:19:14.048Z,99.90
2023-05-31T23:21:41.109Z,99.90
2023-05-31T23:24:08.490Z,99.90
2023-05-31T23:26:35.383Z,99.90
2023-05-31T23:29:02.818Z,99.90
2023-05-31T23:31:29.581Z,99.90
2023-05-31T23:33:58.312Z,99.90
2023-05-31T23:36:25.553Z,99.90
2023-05-31T23:38:52.931Z,99.90
2023-05-31T23:41:19.875Z,99.90
2023-05-31T23:43:46.853Z,99.90
2023-05-31T23:46:13.801Z,99.90
2023-05-31T23:48:40.672Z,99.90
2023-05-31T23:51:08.738Z,99.90
2023-05-31T23:53:36.104Z,99.90
2023-05-31T23:56:02.976Z,99.90
2023-05-31T23:58:31.084Z,99.90
